Terminal Aerodrome Forecast
Issued by NWS

Home | Current Version | Previous Version | Graphics & Text | Print | Product List | Glossary On
Versions: 1 2 3 4 5 6 7 8 9 10 11 12 13 14 15
707
FTUS43 KOAX 181148
TAFCDR
TAF
KCDR 181148Z 1812/1912 32004KT P6SM OVC015
     FM181400 05005KT P6SM SCT030 BKN250
     FM182100 05015G25KT P6SM VCTS SCT040CB BKN080
     FM190200 03013KT P6SM -RA OVC015=

USA.gov is the U.S. government's official web portal to all federal, state and local government web resources and services.